Time;durP1;ratioP1;P1;durP2;ratioP2;P2;SDS_P1;SDS_P2;PMS_P1;PMS_P2;Temp;Humidity;BMP_temperature;BMP_pressure;BME280_temperature;BME280_humidity;BME280_pressure;Samples;Min_cycle;Max_cycle;Signal;HPM_P1;HPM_P2
2022/06/19 00:01:03;;;;;;;4.80;4.40;;;;;;;17.67;100.00;99507.59;5076119;28;20228;-85
2022/06/19 00:03:32;;;;;;;5.27;4.77;;;;;;;17.70;100.00;99502.47;5101701;28;20244;-85
2022/06/19 00:06:00;;;;;;;5.30;4.80;;;;;;;17.80;100.00;99497.06;5100322;28;20213;-85
2022/06/19 00:08:28;;;;;;;5.20;4.80;;;;;;;17.83;100.00;99503.81;5097797;28;20259;-84
2022/06/19 00:10:54;;;;;;;5.30;4.90;;;;;;;17.88;100.00;99507.34;5097005;28;20305;-85
2022/06/19 00:13:21;;;;;;;5.40;4.93;;;;;;;17.93;100.00;99511.97;5116506;27;20230;-85
2022/06/19 00:15:48;;;;;;;5.33;4.70;;;;;;;17.91;100.00;99509.53;5120163;27;20244;-85
2022/06/19 00:18:15;;;;;;;5.30;4.90;;;;;;;17.94;100.00;99510.88;5092318;27;20253;-85
2022/06/19 00:20:41;;;;;;;5.20;4.70;;;;;;;17.92;100.00;99505.72;5114494;27;20237;-84
2022/06/19 00:23:08;;;;;;;6.20;4.90;;;;;;;17.90;100.00;99499.78;5099770;27;20228;-87
2022/06/19 00:25:35;;;;;;;5.27;4.87;;;;;;;17.88;100.00;99499.22;5096764;28;20244;-87
2022/06/19 00:28:02;;;;;;;5.60;4.93;;;;;;;17.87;100.00;99496.81;5079769;28;20277;-87
2022/06/19 00:30:29;;;;;;;5.27;4.90;;;;;;;17.86;100.00;99503.31;5125446;27;20276;-86
2022/06/19 00:32:55;;;;;;;5.53;5.00;;;;;;;17.74;100.00;99498.13;5110471;28;20300;-87
2022/06/19 00:35:22;;;;;;;5.77;4.87;;;;;;;17.67;100.00;99491.34;5099877;28;20265;-84
2022/06/19 00:37:48;;;;;;;5.00;4.60;;;;;;;17.58;100.00;99486.47;5126906;28;20259;-85
2022/06/19 00:40:15;;;;;;;5.67;4.90;;;;;;;17.57;100.00;99487.53;5111572;28;20228;-83
2022/06/19 00:42:42;;;;;;;5.30;4.80;;;;;;;17.50;100.00;99488.84;5120117;28;20719;-83
2022/06/19 00:45:27;;;;;;;5.30;5.00;;;;;;;17.43;100.00;99486.41;5117141;28;20327;-84
2022/06/19 00:47:53;;;;;;;5.57;5.10;;;;;;;17.32;100.00;99483.94;5119348;28;20250;-84
2022/06/19 00:50:24;;;;;;;5.80;5.20;;;;;;;17.26;100.00;99485.84;5104436;28;20762;-84
2022/06/19 00:52:51;;;;;;;6.13;5.53;;;;;;;17.21;100.00;99490.41;5090690;28;20320;-84
2022/06/19 00:55:24;;;;;;;5.97;5.47;;;;;;;17.12;100.00;99482.78;5101296;28;20230;-82
2022/06/19 00:58:09;;;;;;;5.70;5.20;;;;;;;17.09;100.00;99485.22;5096951;27;20222;-84
2022/06/19 01:00:36;;;;;;;6.10;5.50;;;;;;;17.05;100.00;99478.72;5100834;28;20231;-83
2022/06/19 01:03:08;;;;;;;6.10;5.23;;;;;;;17.00;100.00;99476.78;5126127;27;20300;-83
2022/06/19 01:05:36;;;;;;;5.83;5.43;;;;;;;16.97;100.00;99477.34;5115885;27;20564;-83
2022/06/19 01:08:04;;;;;;;6.50;6.00;;;;;;;16.98;100.00;99470.81;5123666;27;20226;-82
2022/06/19 01:10:33;;;;;;;5.97;5.57;;;;;;;17.06;100.00;99470.34;5117550;27;20229;-85
2022/06/19 01:13:00;;;;;;;7.07;6.30;;;;;;;17.05;100.00;99465.16;5069738;28;20306;-84
2022/06/19 01:15:27;;;;;;;6.40;6.00;;;;;;;17.06;100.00;99462.22;5099968;27;20226;-82
2022/06/19 01:17:57;;;;;;;6.93;6.40;;;;;;;17.08;100.00;99467.34;5118368;27;20235;-84
2022/06/19 01:20:25;;;;;;;6.73;6.30;;;;;;;17.10;100.00;99468.72;5104180;28;20224;-83
2022/06/19 01:23:23;;;;;;;6.80;6.20;;;;;;;17.09;100.00;99469.78;5119772;27;20259;-83
2022/06/19 01:25:51;;;;;;;7.30;6.60;;;;;;;17.07;100.00;99461.13;5085987;28;20223;-84
2022/06/19 01:31:11;;;;;;;6.80;6.30;;;;;;;17.01;100.00;99459.47;5113435;28;20235;-83
2022/06/19 01:33:51;;;;;;;7.07;6.50;;;;;;;16.94;100.00;99455.38;5097587;27;20310;-83
2022/06/19 01:36:21;;;;;;;7.10;6.50;;;;;;;16.88;100.00;99448.34;5080499;28;20644;-83
2022/06/19 01:38:50;;;;;;;7.27;6.67;;;;;;;16.86;100.00;99450.47;5092011;28;20581;-84
2022/06/19 01:41:24;;;;;;;7.03;6.53;;;;;;;16.76;100.00;99440.44;5116861;27;20314;-84
2022/06/19 01:43:50;;;;;;;6.80;6.30;;;;;;;16.77;100.00;99447.47;5110781;28;20227;-84
2022/06/19 01:46:18;;;;;;;6.90;6.23;;;;;;;16.73;100.00;99451.78;5119718;27;20232;-83
2022/06/19 01:48:45;;;;;;;6.80;6.20;;;;;;;16.68;100.00;99451.75;5117316;27;20231;-86
2022/06/19 01:51:11;;;;;;;6.57;6.07;;;;;;;16.64;100.00;99442.56;5083581;27;20224;-83
2022/06/19 01:53:42;;;;;;;6.67;5.97;;;;;;;16.63;100.00;99443.63;5085432;28;20242;-84
2022/06/19 01:56:11;;;;;;;7.50;5.80;;;;;;;16.57;100.00;99440.03;5115918;27;20310;-85
2022/06/19 01:58:40;;;;;;;6.63;5.93;;;;;;;16.54;100.00;99439.75;5099013;28;20703;-84
2022/06/19 02:01:08;;;;;;;6.03;5.63;;;;;;;16.50;100.00;99438.66;5097138;27;20251;-84
2022/06/19 02:03:38;;;;;;;6.80;6.20;;;;;;;16.52;100.00;99434.59;5103232;28;20277;-85
2022/06/19 02:06:05;;;;;;;6.83;6.23;;;;;;;16.43;100.00;99429.97;5126083;27;20230;-84
2022/06/19 02:08:34;;;;;;;6.60;6.00;;;;;;;16.29;100.00;99433.13;5093250;28;20246;-85
2022/06/19 02:11:03;;;;;;;6.80;6.10;;;;;;;16.19;100.00;99429.56;5083848;28;20322;-84
2022/06/19 02:13:32;;;;;;;7.13;6.53;;;;;;;16.12;100.00;99429.78;5109967;27;20687;-83
2022/06/19 02:15:59;;;;;;;6.70;6.20;;;;;;;16.14;100.00;99429.53;5121449;27;20233;-85
2022/06/19 02:18:31;;;;;;;6.17;5.70;;;;;;;16.00;100.00;99426.47;5106045;27;20226;-84
2022/06/19 02:20:57;;;;;;;6.20;5.60;;;;;;;15.92;100.00;99424.22;5108890;27;20234;-85
2022/06/19 02:23:35;;;;;;;7.30;6.60;;;;;;;15.86;100.00;99415.28;5112118;27;20272;-85
2022/06/19 02:26:04;;;;;;;7.03;6.40;;;;;;;15.81;100.00;99415.25;5130208;27;20616;-83
2022/06/19 02:28:31;;;;;;;6.77;6.27;;;;;;;15.76;100.00;99414.41;5083611;27;20682;-85
2022/06/19 02:30:58;;;;;;;7.17;6.67;;;;;;;15.75;100.00;99420.88;5128914;27;20226;-83
2022/06/19 02:33:27;;;;;;;7.40;6.80;;;;;;;15.71;100.00;99417.06;5106968;27;20314;-85
2022/06/19 02:35:54;;;;;;;7.73;7.13;;;;;;;15.68;100.00;99414.84;5090307;28;20258;-84
2022/06/19 02:38:21;;;;;;;7.07;6.40;;;;;;;15.67;100.00;99408.66;5119943;27;20219;-84
2022/06/19 02:41:03;;;;;;;7.33;6.73;;;;;;;15.61;100.00;99409.69;5113331;28;20231;-85
2022/06/19 02:43:33;;;;;;;7.90;7.20;;;;;;;15.58;100.00;99414.81;5094675;27;20241;-87
2022/06/19 02:46:01;;;;;;;7.90;7.10;;;;;;;15.53;100.00;99412.88;5095370;27;20237;-85
2022/06/19 02:48:30;;;;;;;7.70;6.90;;;;;;;15.50;100.00;99409.81;5096831;27;20219;-85
2022/06/19 02:51:00;;;;;;;7.40;6.80;;;;;;;15.46;100.00;99417.63;5089784;28;20316;-83
2022/06/19 02:53:27;;;;;;;7.70;7.00;;;;;;;15.42;100.00;99406.53;5084021;27;20246;-84
2022/06/19 02:55:54;;;;;;;7.50;6.90;;;;;;;15.45;100.00;99407.88;5130945;27;20310;-85
2022/06/19 02:58:21;;;;;;;7.50;6.80;;;;;;;15.44;100.00;99398.19;5108691;27;20316;-83
2022/06/19 03:00:49;;;;;;;7.27;6.67;;;;;;;15.38;100.00;99396.50;5119627;27;20706;-81
2022/06/19 03:03:27;;;;;;;6.77;6.27;;;;;;;15.36;100.00;99402.16;5116478;27;20247;-84
2022/06/19 03:05:54;;;;;;;6.50;6.00;;;;;;;15.34;100.00;99401.59;5118942;27;20782;-82
2022/06/19 03:08:21;;;;;;;6.00;5.50;;;;;;;15.33;100.00;99402.66;5094609;28;20266;-83
2022/06/19 03:10:47;;;;;;;6.67;5.60;;;;;;;15.32;100.00;99392.13;5107623;28;20250;-83
2022/06/19 03:13:18;;;;;;;6.23;5.73;;;;;;;15.38;100.00;99394.63;5110008;27;20301;-85
2022/06/19 03:15:45;;;;;;;6.23;5.73;;;;;;;15.41;100.00;99396.78;5084506;28;20326;-83
2022/06/19 03:18:12;;;;;;;6.40;5.77;;;;;;;15.49;100.00;99398.19;5111136;28;20226;-84
2022/06/19 03:20:38;;;;;;;6.23;5.80;;;;;;;15.53;100.00;99387.75;5116521;27;20231;-83
2022/06/19 03:23:05;;;;;;;7.17;6.00;;;;;;;15.58;100.00;99383.22;5100833;27;20224;-82
2022/06/19 03:25:32;;;;;;;6.40;5.80;;;;;;;15.66;100.00;99385.44;5095451;27;20814;-83
2022/06/19 03:27:59;;;;;;;5.97;5.47;;;;;;;15.71;100.00;99384.66;5110568;27;20242;-84
2022/06/19 03:30:27;;;;;;;6.03;5.53;;;;;;;15.76;100.00;99382.81;5100147;28;20228;-83
2022/06/19 03:32:54;;;;;;;6.07;5.50;;;;;;;15.78;100.00;99375.25;5091816;28;20258;-84
2022/06/19 03:35:21;;;;;;;6.00;5.50;;;;;;;15.84;100.00;99381.50;5100606;28;20219;-84
2022/06/19 03:37:47;;;;;;;5.77;5.27;;;;;;;15.87;100.00;99378.28;5118749;27;20310;-84
2022/06/19 03:40:14;;;;;;;6.33;5.73;;;;;;;15.95;100.00;99379.69;5113204;27;20246;-85
2022/06/19 03:42:41;;;;;;;5.97;5.53;;;;;;;16.01;100.00;99381.34;5116301;27;20250;-83
2022/06/19 03:45:08;;;;;;;6.00;5.60;;;;;;;16.07;100.00;99378.41;5127758;27;21020;-84
2022/06/19 03:47:35;;;;;;;5.87;5.43;;;;;;;16.12;100.00;99380.31;5121842;27;20683;-84
2022/06/19 03:50:03;;;;;;;5.80;5.20;;;;;;;16.16;100.00;99376.03;5115983;27;20240;-83
2022/06/19 03:52:30;;;;;;;5.77;5.27;;;;;;;16.21;100.00;99373.34;5114729;27;20239;-84
2022/06/19 03:54:56;;;;;;;5.90;5.27;;;;;;;16.30;100.00;99375.28;5121990;27;20757;-82
2022/06/19 03:57:23;;;;;;;6.10;5.50;;;;;;;16.37;100.00;99374.25;5120113;27;20318;-83
2022/06/19 03:59:50;;;;;;;5.60;5.20;;;;;;;16.45;100.00;99369.16;5115199;27;20231;-82
2022/06/19 04:02:18;;;;;;;5.53;5.00;;;;;;;16.55;100.00;99369.19;5118661;27;20905;-82
2022/06/19 04:04:45;;;;;;;5.90;5.40;;;;;;;16.69;100.00;99364.13;5109854;27;20242;-84
2022/06/19 04:07:14;;;;;;;5.60;5.20;;;;;;;17.08;100.00;99361.78;5117996;27;20618;-82
2022/06/19 04:09:41;;;;;;;4.83;4.27;;;;;;;17.76;100.00;99357.78;5117702;27;20280;-83
2022/06/19 04:12:09;;;;;;;5.07;4.57;;;;;;;18.51;100.00;99353.25;5120999;27;20770;-83
2022/06/19 04:14:36;;;;;;;5.10;4.60;;;;;;;19.13;100.00;99349.91;5106412;28;20277;-83
2022/06/19 04:17:05;;;;;;;4.80;4.23;;;;;;;19.67;100.00;99343.56;5113749;27;20645;-84
2022/06/19 04:19:31;;;;;;;5.13;4.37;;;;;;;20.18;100.00;99341.13;5091600;28;20241;-84
2022/06/19 04:21:58;;;;;;;4.40;4.00;;;;;;;20.67;100.00;99340.03;5110625;27;20288;-83
2022/06/19 04:24:25;;;;;;;4.40;4.00;;;;;;;21.42;100.00;99344.38;5097150;28;20308;-82
2022/06/19 04:26:51;;;;;;;5.50;3.97;;;;;;;22.21;100.00;99336.19;5110905;27;20310;-83
2022/06/19 04:29:18;;;;;;;4.40;4.00;;;;;;;23.09;100.00;99354.00;5105854;27;20262;-83
2022/06/19 04:31:45;;;;;;;5.03;4.30;;;;;;;24.09;90.09;99399.13;5115651;28;20743;-83
2022/06/19 04:34:12;;;;;;;4.43;4.03;;;;;;;24.71;81.76;99339.63;5109089;27;20225;-83
2022/06/19 04:36:39;;;;;;;4.27;3.87;;;;;;;25.11;80.53;99340.34;5104828;28;20319;-83
2022/06/19 04:39:06;;;;;;;4.67;4.27;;;;;;;25.28;76.15;99334.88;5093456;28;20313;-82
2022/06/19 04:41:38;;;;;;;4.40;4.00;;;;;;;24.68;80.22;99339.47;5091644;28;20349;-81
2022/06/19 04:44:07;;;;;;;3.60;3.40;;;;;;;23.90;89.05;99335.59;5083550;28;20253;-82
2022/06/19 04:46:34;;;;;;;4.37;3.93;;;;;;;23.16;100.00;99332.50;5113911;28;20236;-81
2022/06/19 04:49:01;;;;;;;3.67;3.37;;;;;;;22.85;100.00;99329.69;5085402;28;20272;-81
2022/06/19 04:51:27;;;;;;;4.13;3.47;;;;;;;22.68;100.00;99332.19;5090621;28;20589;-81
2022/06/19 04:53:55;;;;;;;4.07;3.77;;;;;;;22.55;100.00;99343.94;5091422;28;20271;-81
2022/06/19 04:56:22;;;;;;;4.10;3.70;;;;;;;22.34;100.00;99341.66;5104317;28;20262;-80
2022/06/19 04:58:50;;;;;;;4.63;4.27;;;;;;;22.10;100.00;99340.22;5094260;28;20706;-80
2022/06/19 05:01:26;;;;;;;4.50;4.10;;;;;;;21.86;100.00;99330.25;5091660;28;20231;-80
2022/06/19 05:03:56;;;;;;;4.37;4.07;;;;;;;21.89;100.00;99332.38;5090847;28;20256;-81
2022/06/19 05:06:23;;;;;;;4.43;4.03;;;;;;;21.85;100.00;99327.81;5094621;28;20717;-81
2022/06/19 05:08:49;;;;;;;4.37;3.97;;;;;;;21.93;100.00;99322.50;5090389;28;20256;-83
2022/06/19 05:11:17;;;;;;;5.23;4.20;;;;;;;21.97;100.00;99322.75;5093837;28;20326;-84
2022/06/19 05:13:44;;;;;;;4.63;3.87;;;;;;;22.02;100.00;99317.19;5084755;28;20333;-83
2022/06/19 05:16:16;;;;;;;5.27;3.97;;;;;;;22.07;100.00;99317.06;5098527;28;20263;-82
2022/06/19 05:18:43;;;;;;;4.07;3.77;;;;;;;22.24;100.00;99320.03;5065895;28;20238;-83
2022/06/19 05:21:13;;;;;;;3.87;3.50;;;;;;;22.31;100.00;99323.13;5074684;28;20325;-82
2022/06/19 05:23:42;;;;;;;4.33;4.00;;;;;;;22.28;100.00;99321.03;5078728;28;20330;-83
2022/06/19 05:26:12;;;;;;;4.10;3.70;;;;;;;22.46;100.00;99321.22;5095760;28;20215;-81
2022/06/19 05:28:39;;;;;;;4.07;3.77;;;;;;;22.54;100.00;99324.03;5073299;28;20635;-81
2022/06/19 05:31:05;;;;;;;4.00;3.60;;;;;;;22.65;100.00;99305.50;5087014;28;20320;-81
2022/06/19 05:33:32;;;;;;;4.13;3.83;;;;;;;22.86;100.00;99314.09;5087495;28;20240;-81
2022/06/19 05:35:59;;;;;;;4.67;3.20;;;;;;;22.98;100.00;99315.16;5079496;28;20296;-83
2022/06/19 05:38:26;;;;;;;3.63;3.30;;;;;;;23.18;100.00;99313.88;5092590;28;20316;-84
2022/06/19 05:40:55;;;;;;;3.42;3.13;;;;;;;23.35;98.60;99318.66;5085761;28;20240;-83
2022/06/19 05:43:23;;;;;;;3.13;2.83;;;;;;;23.52;93.13;99313.34;5053371;28;20224;-81
2022/06/19 05:45:58;;;;;;;3.30;3.00;;;;;;;23.56;92.78;99314.34;5079685;28;20324;-82
2022/06/19 05:48:27;;;;;;;3.45;2.80;;;;;;;23.82;93.04;99311.75;5090150;28;20642;-85
2022/06/19 05:51:05;;;;;;;4.90;3.30;;;;;;;23.97;92.81;99317.63;5095751;28;20319;-83
2022/06/19 05:53:35;;;;;;;3.17;2.90;;;;;;;24.13;92.45;99315.25;5093002;28;20239;-84
2022/06/19 05:56:03;;;;;;;4.03;3.25;;;;;;;24.22;90.68;99318.88;5090465;28;20258;-84
2022/06/19 05:58:31;;;;;;;3.47;3.17;;;;;;;24.31;90.64;99308.75;5095273;28;20254;-84
2022/06/19 06:00:57;;;;;;;3.47;3.15;;;;;;;24.32;88.29;99307.63;5090277;28;20227;-84
2022/06/19 06:03:24;;;;;;;3.47;3.10;;;;;;;24.63;86.04;99304.81;5099110;28;20216;-84
2022/06/19 06:05:51;;;;;;;3.58;2.80;;;;;;;24.77;85.32;99307.41;5083571;28;20299;-83
2022/06/19 06:08:19;;;;;;;3.00;2.80;;;;;;;24.95;85.67;99307.13;5093434;28;20289;-81
2022/06/19 06:10:48;;;;;;;3.25;3.05;;;;;;;25.15;84.20;99307.63;5101704;28;20775;-84
2022/06/19 06:13:16;;;;;;;3.08;2.88;;;;;;;25.33;80.43;99304.56;5094212;28;20236;-83
2022/06/19 06:15:45;;;;;;;4.55;2.53;;;;;;;25.51;75.83;99302.56;5099796;28;20232;-82
2022/06/19 06:18:12;;;;;;;3.38;2.55;;;;;;;25.74;76.59;99305.94;5098585;28;20269;-81
2022/06/19 06:20:39;;;;;;;3.65;2.50;;;;;;;25.95;76.02;99308.75;5093057;28;20813;-82
2022/06/19 06:23:05;;;;;;;3.08;2.60;;;;;;;26.11;71.32;99291.44;5088235;28;20253;-82
2022/06/19 06:25:32;;;;;;;3.30;2.55;;;;;;;26.39;67.02;99296.47;5098702;28;20240;-82
2022/06/19 06:27:59;;;;;;;2.42;2.20;;;;;;;26.60;67.65;99295.38;5081750;28;20313;-82
2022/06/19 06:30:25;;;;;;;3.25;2.40;;;;;;;26.70;64.35;99299.66;5094102;28;20237;-82
2022/06/19 06:33:03;;;;;;;2.40;2.20;;;;;;;26.85;61.33;99299.09;5098946;28;20264;-82
2022/06/19 06:35:30;;;;;;;2.17;2.08;;;;;;;26.94;56.65;99296.28;5092527;27;20308;-83
2022/06/19 06:38:00;;;;;;;2.92;2.10;;;;;;;27.10;56.56;99289.88;5107690;27;20753;-83
2022/06/19 06:40:27;;;;;;;2.20;2.00;;;;;;;27.22;56.42;99293.78;5098968;28;20235;-82
2022/06/19 06:42:54;;;;;;;3.22;2.00;;;;;;;27.39;52.56;99288.16;5081830;28;20229;-82
2022/06/19 06:45:21;;;;;;;2.40;2.20;;;;;;;27.52;53.67;99287.88;5103130;28;20312;-81
2022/06/19 06:47:48;;;;;;;3.83;2.40;;;;;;;27.56;50.55;99288.00;5110127;27;20786;-82
2022/06/19 06:50:15;;;;;;;2.85;2.30;;;;;;;27.70;49.92;99276.66;5119338;27;20207;-83
2022/06/19 06:52:41;;;;;;;2.42;2.15;;;;;;;27.63;49.24;99277.22;5103221;27;20229;-82
2022/06/19 06:55:09;;;;;;;2.50;2.30;;;;;;;27.76;48.44;99278.88;5118961;27;20224;-83
2022/06/19 06:57:35;;;;;;;3.53;2.30;;;;;;;27.79;48.18;99266.38;5085855;27;20367;-82
2022/06/19 07:00:04;;;;;;;2.53;2.25;;;;;;;27.77;48.45;99268.63;5085994;28;20325;-81
2022/06/19 07:02:31;;;;;;;2.42;2.22;;;;;;;27.80;48.68;99267.97;5071948;28;20636;-82
2022/06/19 07:04:57;;;;;;;2.85;2.03;;;;;;;27.87;48.64;99263.50;5119376;27;20230;-82
2022/06/19 07:07:24;;;;;;;3.83;2.13;;;;;;;27.84;47.46;99266.13;5099876;28;20226;-82
2022/06/19 07:09:51;;;;;;;2.55;2.00;;;;;;;27.75;47.82;99258.00;5095756;28;20231;-82
2022/06/19 07:12:18;;;;;;;3.40;2.00;;;;;;;27.73;48.42;99265.78;5112665;28;20322;-82
2022/06/19 07:14:44;;;;;;;3.97;2.30;;;;;;;27.89;47.83;99258.47;5116420;27;20255;-80
2022/06/19 07:17:12;;;;;;;2.47;2.10;;;;;;;27.96;46.66;99250.44;5124864;27;20766;-81
2022/06/19 07:19:39;;;;;;;2.30;2.05;;;;;;;28.01;45.73;99257.66;5077563;28;20237;-82
2022/06/19 07:22:05;;;;;;;2.30;2.10;;;;;;;27.99;46.59;99252.50;5100086;28;20240;-83
2022/06/19 07:24:32;;;;;;;2.20;2.00;;;;;;;28.09;45.01;99245.72;5096597;28;20306;-83
2022/06/19 07:26:59;;;;;;;4.60;2.40;;;;;;;28.07;45.66;99248.03;5115389;27;20318;-83
2022/06/19 07:29:26;;;;;;;2.35;2.20;;;;;;;28.11;45.47;99246.22;5096432;28;20190;-83
2022/06/19 07:31:54;;;;;;;5.93;2.40;;;;;;;28.19;44.60;99241.72;5084065;27;20239;-83
2022/06/19 07:34:21;;;;;;;4.32;2.10;;;;;;;28.28;44.77;99232.19;5090764;28;20207;-83
2022/06/19 07:36:53;;;;;;;4.65;2.10;;;;;;;28.33;42.84;99234.72;5098102;27;20247;-81
2022/06/19 07:39:19;;;;;;;2.58;2.28;;;;;;;28.32;43.00;99233.09;5123625;27;20309;-83
2022/06/19 07:41:46;;;;;;;3.17;2.10;;;;;;;28.34;43.84;99227.25;5092237;28;20215;-82
2022/06/19 07:44:13;;;;;;;3.22;2.20;;;;;;;28.48;43.45;99218.63;5086815;27;20228;-83
2022/06/19 07:50:09;;;;;;;2.80;2.20;;;;;;;28.58;44.25;99224.47;5096334;27;20227;-83
2022/06/19 07:52:12;;;;;;;2.95;2.10;;;;;;;28.60;41.80;99208.41;5082533;28;20262;-83
2022/06/19 07:54:39;;;;;;;3.13;2.00;;;;;;;28.58;42.37;99226.41;5117163;27;20233;-85
2022/06/19 07:57:06;;;;;;;4.50;2.22;;;;;;;28.53;43.36;99216.44;5111445;27;20227;-82
2022/06/19 07:59:32;;;;;;;2.83;1.90;;;;;;;28.56;43.94;99217.69;5095353;27;20239;-83
2022/06/19 08:01:59;;;;;;;3.28;2.25;;;;;;;28.64;42.87;99217.56;5083907;28;20239;-83
2022/06/19 08:04:34;;;;;;;2.83;1.90;;;;;;;28.78;40.99;99211.69;5076626;28;20211;-83
2022/06/19 08:07:11;;;;;;;3.05;2.15;;;;;;;28.65;40.72;99205.38;5125799;27;20230;-83
2022/06/19 08:09:38;;;;;;;2.75;2.35;;;;;;;28.73;41.29;99211.94;5087463;27;20280;-83
2022/06/19 08:12:05;;;;;;;3.28;2.40;;;;;;;28.80;41.04;99214.88;5117368;27;20710;-83
2022/06/19 08:14:32;;;;;;;2.38;1.83;;;;;;;28.86;40.47;99202.47;5083117;27;20280;-84
2022/06/19 08:16:58;;;;;;;2.17;1.83;;;;;;;28.83;40.62;99203.97;5098943;28;20225;-81
2022/06/19 08:19:25;;;;;;;3.25;2.20;;;;;;;29.00;39.80;99199.31;5111427;27;20238;-82
2022/06/19 08:21:52;;;;;;;2.17;1.98;;;;;;;28.89;39.56;99196.25;5118023;27;20741;-81
2022/06/19 08:24:19;;;;;;;2.63;1.90;;;;;;;29.05;40.16;99193.53;5101479;28;20231;-81
2022/06/19 08:26:46;;;;;;;3.83;2.25;;;;;;;29.07;39.88;99191.25;5080395;27;20275;-82
2022/06/19 08:29:12;;;;;;;2.40;2.10;;;;;;;29.07;39.16;99185.72;5061246;28;20285;-81
2022/06/19 08:31:39;;;;;;;2.35;2.15;;;;;;;29.09;39.33;99192.47;5116846;27;20322;-82
2022/06/19 08:34:06;;;;;;;3.92;1.80;;;;;;;29.02;39.58;99194.25;5094720;28;20254;-81
2022/06/19 08:36:35;;;;;;;3.83;2.03;;;;;;;29.06;39.02;99190.44;5099738;28;20303;-82
2022/06/19 08:39:04;;;;;;;2.80;2.30;;;;;;;29.23;40.36;99192.84;5087524;28;20229;-83
2022/06/19 08:41:39;;;;;;;2.05;1.95;;;;;;;29.22;38.54;99187.69;5093582;28;20753;-81
2022/06/19 08:44:20;;;;;;;2.42;2.05;;;;;;;29.23;38.77;99186.53;5108072;28;20265;-81
2022/06/19 08:46:50;;;;;;;2.42;2.05;;;;;;;29.40;40.55;99177.94;5110436;28;20245;-80
2022/06/19 08:49:32;;;;;;;3.65;2.03;;;;;;;29.54;39.09;99183.03;5105806;28;20219;-81
2022/06/19 08:52:17;;;;;;;4.95;2.35;;;;;;;29.59;39.30;99163.44;5104756;28;20278;-82
2022/06/19 08:54:58;;;;;;;2.63;2.10;;;;;;;29.67;38.45;99166.03;5075976;28;20235;-82
2022/06/19 08:57:51;;;;;;;2.10;1.90;;;;;;;29.71;40.26;99177.16;5089294;28;20249;-82
2022/06/19 09:00:28;;;;;;;3.47;2.38;;;;;;;29.74;40.20;99177.25;5090344;28;20223;-79
2022/06/19 09:03:16;;;;;;;2.30;2.10;;;;;;;29.93;39.12;99176.53;5083500;28;20222;-81
2022/06/19 09:05:53;;;;;;;2.47;2.00;;;;;;;30.02;37.77;99182.66;5087508;28;20633;-81
2022/06/19 09:08:35;;;;;;;2.90;2.25;;;;;;;30.05;40.20;99179.19;5092333;28;20851;-79
2022/06/19 09:11:16;;;;;;;5.57;2.20;;;;;;;30.06;38.50;99175.25;5088904;28;20247;-81
2022/06/19 09:14:02;;;;;;;2.35;2.15;;;;;;;30.08;38.51;99175.72;5094968;28;20227;-81
2022/06/19 09:16:45;;;;;;;3.47;2.28;;;;;;;30.15;39.92;99177.81;5094531;28;20218;-78
2022/06/19 09:19:22;;;;;;;2.67;2.30;;;;;;;30.03;38.85;99167.72;5097455;28;20259;-82
2022/06/19 09:22:07;;;;;;;4.18;2.60;;;;;;;30.09;39.29;99159.94;5082023;28;20307;-81
2022/06/19 09:25:11;;;;;;;2.30;2.10;;;;;;;30.08;38.98;99167.44;5117231;27;20218;-81
2022/06/19 09:28:08;;;;;;;3.42;2.13;;;;;;;30.20;39.64;99152.69;5103631;27;20240;-80
2022/06/19 09:30:49;;;;;;;2.60;2.20;;;;;;;30.27;38.78;99152.84;5102378;28;20231;-81
2022/06/19 09:33:39;;;;;;;2.78;2.28;;;;;;;30.21;38.77;99146.00;5096097;28;20464;-80
2022/06/19 09:36:40;;;;;;;4.57;2.70;;;;;;;30.16;38.59;99147.09;5070546;28;20236;-81
2022/06/19 09:39:26;;;;;;;2.70;2.50;;;;;;;30.25;39.58;99151.59;5105674;27;20288;-81
2022/06/19 09:41:58;;;;;;;2.88;2.58;;;;;;;30.12;39.61;99137.13;5103860;27;20248;-81
2022/06/19 09:45:03;;;;;;;2.92;2.50;;;;;;;30.17;40.08;99139.59;5080971;28;20315;-81
2022/06/19 09:47:29;;;;;;;3.80;2.63;;;;;;;30.31;40.39;99137.16;5059016;27;20640;-82
2022/06/19 09:50:16;;;;;;;5.97;2.78;;;;;;;30.26;40.36;99131.09;5113060;27;20277;-83
2022/06/19 09:53:10;;;;;;;2.95;2.60;;;;;;;30.31;40.39;99134.38;5120527;27;20243;-80
2022/06/19 09:56:06;;;;;;;2.88;2.40;;;;;;;30.27;39.75;99127.19;5102492;27;20242;-80
2022/06/19 09:58:50;;;;;;;5.57;3.10;;;;;;;30.30;40.02;99127.25;5109656;27;20220;-82
2022/06/19 10:01:17;;;;;;;5.57;2.85;;;;;;;30.37;41.76;99115.56;5089136;28;20242;-81
2022/06/19 10:04:18;;;;;;;3.35;2.60;;;;;;;30.43;42.16;99120.41;5112633;27;20276;-82
2022/06/19 10:06:52;;;;;;;2.78;2.55;;;;;;;30.49;41.10;99110.72;5106311;28;20230;-80
2022/06/19 10:09:34;;;;;;;3.25;2.65;;;;;;;30.51;41.31;99094.56;5098457;28;20738;-81
2022/06/19 10:12:04;;;;;;;4.15;2.80;;;;;;;30.68;41.24;99092.50;5101016;28;20276;-78
2022/06/19 10:14:31;;;;;;;3.67;2.38;;;;;;;30.66;41.57;99094.81;5093351;27;20259;-81
2022/06/19 10:17:21;;;;;;;5.28;2.95;;;;;;;30.58;39.89;99097.47;5089299;27;20243;-81
2022/06/19 10:19:52;;;;;;;3.00;2.80;;;;;;;30.59;40.30;99089.97;5119429;27;20261;-80
2022/06/19 10:22:25;;;;;;;3.22;2.70;;;;;;;30.68;39.66;99089.75;5084379;28;20749;-82
2022/06/19 10:25:32;;;;;;;4.47;2.88;;;;;;;30.67;40.48;99090.91;5125546;27;20226;-83
2022/06/19 10:28:10;;;;;;;3.55;2.85;;;;;;;30.71;40.78;99086.25;5084349;27;20313;-82
2022/06/19 10:30:47;;;;;;;3.53;2.80;;;;;;;30.76;41.27;99083.19;5083422;28;20230;-83
2022/06/19 10:33:24;;;;;;;6.57;2.40;;;;;;;30.95;39.70;99085.91;5092090;28;20589;-81
2022/06/19 10:36:21;;;;;;;2.92;2.72;;;;;;;30.89;39.52;99092.94;5096390;27;20230;-80
2022/06/19 10:39:25;;;;;;;4.38;2.55;;;;;;;30.85;39.09;99090.06;5092407;27;20288;-81
2022/06/19 10:42:16;;;;;;;5.97;2.70;;;;;;;30.86;41.32;99080.63;5120187;27;20687;-81
2022/06/19 10:45:07;;;;;;;5.25;2.67;;;;;;;30.99;40.07;99075.69;5069927;28;20272;-83
2022/06/19 10:47:58;;;;;;;2.90;2.65;;;;;;;31.02;38.17;99070.28;5117797;27;20228;-80
2022/06/19 10:50:44;;;;;;;4.53;2.70;;;;;;;31.13;40.51;99064.09;5091946;28;20257;-81
2022/06/19 10:53:19;;;;;;;3.58;2.95;;;;;;;31.26;38.56;99057.25;5111654;27;20265;-79
2022/06/19 10:56:02;;;;;;;3.78;2.47;;;;;;;31.37;38.62;99056.22;5102661;27;20235;-81
2022/06/19 10:58:30;;;;;;;2.90;2.42;;;;;;;31.35;37.52;99041.97;5072295;28;20223;-83
2022/06/19 11:01:00;;;;;;;5.57;2.60;;;;;;;31.41;38.03;99043.22;5083686;27;20736;-80
2022/06/19 11:06:38;;;;;;;3.38;2.50;;;;;;;31.65;36.57;99030.97;5094519;28;20705;-83
2022/06/19 11:09:09;;;;;;;4.93;2.35;;;;;;;31.63;37.00;99033.34;5112287;28;20284;-82
2022/06/19 11:11:38;;;;;;;3.33;2.15;;;;;;;31.60;37.26;99022.19;5080953;28;20223;-81
2022/06/19 11:14:10;;;;;;;4.10;3.00;;;;;;;31.75;36.70;99018.44;5079004;28;20237;-81
2022/06/19 11:16:57;;;;;;;3.38;2.30;;;;;;;31.78;36.57;99028.75;5094567;27;20223;-80
2022/06/19 11:19:45;;;;;;;3.88;2.28;;;;;;;31.82;35.65;99021.31;5091402;28;20729;-84
2022/06/19 11:22:30;;;;;;;4.57;2.47;;;;;;;31.90;36.58;99032.13;5105129;27;20231;-85
2022/06/19 11:25:33;;;;;;;5.43;2.40;;;;;;;31.79;35.06;99014.56;5094670;28;20284;-82
2022/06/19 11:28:00;;;;;;;7.05;2.53;;;;;;;31.72;34.93;99031.09;5112735;28;20276;-82
2022/06/19 11:30:48;;;;;;;4.68;2.30;;;;;;;31.71;36.17;99026.72;5117111;27;20242;-81
2022/06/19 11:33:17;;;;;;;2.88;2.30;;;;;;;31.85;34.68;99034.41;5114773;27;20220;-82
2022/06/19 11:35:57;;;;;;;4.60;2.60;;;;;;;31.90;35.42;99023.81;5098583;28;20306;-84
2022/06/19 11:38:36;;;;;;;3.60;2.00;;;;;;;31.87;34.38;99018.19;5094027;28;20227;-81
2022/06/19 11:41:18;;;;;;;4.45;2.40;;;;;;;31.89;34.98;99018.63;5108301;28;20313;-82
2022/06/19 11:43:45;;;;;;;5.18;2.80;;;;;;;31.97;34.64;99000.13;5096203;27;20227;-82
2022/06/19 11:46:25;;;;;;;4.13;2.40;;;;;;;32.00;34.83;99013.25;5093066;28;20235;-82
2022/06/19 11:48:54;;;;;;;3.38;2.25;;;;;;;32.03;34.25;99004.97;5095177;28;20881;-82
2022/06/19 11:51:23;;;;;;;3.95;2.35;;;;;;;32.02;33.49;98994.25;5115601;27;20247;-81
2022/06/19 11:53:55;;;;;;;4.47;2.63;;;;;;;32.09;34.43;98988.81;5114720;27;20692;-83
2022/06/19 11:56:31;;;;;;;4.15;3.00;;;;;;;32.11;35.49;98997.56;5082680;27;20231;-82
2022/06/19 11:59:00;;;;;;;19.83;9.68;;;;;;;32.44;36.55;98992.00;5115372;27;20243;-83